createdAt,value
2023-02-28T00:00:54.920Z,6.73
2023-02-28T00:03:21.320Z,6.69
2023-02-28T00:05:47.835Z,6.66
2023-02-28T00:08:14.484Z,6.65
2023-02-28T00:10:40.867Z,6.62
2023-02-28T00:13:07.787Z,6.60
2023-02-28T00:15:35.261Z,6.59
2023-02-28T00:18:03.212Z,6.56
2023-02-28T00:20:30.494Z,6.54
2023-02-28T00:22:57.266Z,6.52
2023-02-28T00:25:26.469Z,6.50
2023-02-28T00:27:53.668Z,6.48
2023-02-28T00:30:22.702Z,6.46
2023-02-28T00:32:49.725Z,6.44
2023-02-28T00:35:16.428Z,6.42
2023-02-28T00:37:43.654Z,6.40
2023-02-28T00:40:12.238Z,6.37
2023-02-28T00:42:39.073Z,6.34
2023-02-28T00:45:06.337Z,6.31
2023-02-28T00:47:33.388Z,6.29
2023-02-28T00:50:00.298Z,6.25
2023-02-28T00:52:26.862Z,6.21
2023-02-28T00:54:53.210Z,6.16
2023-02-28T00:57:19.757Z,6.14
2023-02-28T00:59:46.202Z,6.10
2023-02-28T01:02:12.586Z,6.06
2023-02-28T01:04:40.172Z,6.02
2023-02-28T01:07:06.828Z,5.97
2023-02-28T01:09:33.513Z,5.92
2023-02-28T01:12:00.346Z,5.88
2023-02-28T01:14:26.935Z,5.84
2023-02-28T01:16:53.379Z,5.81
2023-02-28T01:19:20.308Z,5.77
2023-02-28T01:21:46.933Z,5.73
2023-02-28T01:24:13.336Z,5.68
2023-02-28T01:26:40.211Z,5.63
2023-02-28T01:29:06.579Z,5.60
2023-02-28T01:31:33.279Z,5.56
2023-02-28T01:34:00.128Z,5.52
2023-02-28T01:36:27.078Z,5.48
2023-02-28T01:38:53.583Z,5.45
2023-02-28T01:41:25.735Z,5.40
2023-02-28T01:44:05.422Z,5.39
2023-02-28T01:46:34.065Z,5.37
2023-02-28T01:49:09.916Z,5.34
2023-02-28T01:51:52.346Z,5.29
2023-02-28T01:54:29.437Z,5.26
2023-02-28T01:57:07.010Z,5.24
2023-02-28T01:59:52.089Z,5.22
2023-02-28T02:02:23.031Z,5.20
2023-02-28T02:05:02.869Z,5.15
2023-02-28T02:07:34.223Z,5.13
2023-02-28T02:10:04.635Z,5.11
2023-02-28T02:13:04.537Z,5.05
2023-02-28T02:15:53.957Z,5.04
2023-02-28T02:18:23.253Z,5.04
2023-02-28T02:21:11.804Z,5.02
2023-02-28T02:24:03.634Z,5.01
2023-02-28T02:27:21.784Z,5.01
2023-02-28T02:30:21.488Z,4.99
2023-02-28T02:32:47.790Z,5.00
2023-02-28T02:35:27.071Z,4.97
2023-02-28T02:38:10.336Z,4.94
2023-02-28T02:40:48.086Z,4.93
2023-02-28T02:43:20.677Z,4.93
2023-02-28T02:45:53.079Z,4.90
2023-02-28T02:48:22.585Z,4.89
2023-02-28T02:50:58.952Z,4.86
2023-02-28T02:53:33.354Z,4.86
2023-02-28T02:56:02.356Z,4.84
2023-02-28T02:58:35.207Z,4.82
2023-02-28T03:01:04.519Z,4.81
2023-02-28T03:03:33.619Z,4.78
2023-02-28T03:06:01.915Z,4.77
2023-02-28T03:08:30.699Z,4.75
2023-02-28T03:11:00.753Z,4.73
2023-02-28T03:13:53.088Z,4.67
2023-02-28T03:16:39.813Z,4.62
2023-02-28T03:19:29.446Z,4.59
2023-02-28T03:22:27.731Z,4.56
2023-02-28T03:25:30.158Z,4.54
2023-02-28T03:28:05.506Z,4.54
2023-02-28T03:30:55.496Z,4.51
2023-02-28T03:33:33.060Z,4.48
2023-02-28T03:36:21.428Z,4.46
2023-02-28T03:39:06.363Z,4.42
2023-02-28T03:41:39.788Z,4.40
2023-02-28T03:44:17.155Z,4.36
2023-02-28T03:46:51.870Z,4.34
2023-02-28T03:49:23.314Z,4.32
2023-02-28T03:51:52.039Z,4.29
2023-02-28T03:54:29.814Z,4.28
2023-02-28T03:57:03.190Z,4.27
2023-02-28T03:59:35.669Z,4.27
2023-02-28T04:02:02.498Z,4.25
2023-02-28T04:04:29.447Z,4.25
2023-02-28T04:07:05.051Z,4.22
2023-02-28T04:09:33.157Z,4.21
2023-02-28T04:11:59.746Z,4.21
2023-02-28T04:14:26.711Z,4.21
2023-02-28T04:16:53.607Z,4.18
2023-02-28T04:19:22.242Z,4.17
2023-02-28T04:21:54.206Z,4.13
2023-02-28T04:24:23.098Z,4.12
2023-02-28T04:26:52.251Z,4.10
2023-02-28T04:29:22.323Z,4.10
2023-02-28T04:31:49.205Z,4.09
2023-02-28T04:34:16.100Z,4.08
2023-02-28T04:36:42.491Z,4.08
2023-02-28T04:39:10.655Z,4.06
2023-02-28T04:41:37.331Z,4.04
2023-02-28T04:44:05.145Z,4.05
2023-02-28T04:46:31.718Z,4.04
2023-02-28T04:48:58.198Z,4.04
2023-02-28T04:51:24.605Z,4.05
2023-02-28T04:53:51.199Z,4.03
2023-02-28T04:56:19.208Z,4.01
2023-02-28T04:58:45.991Z,4.01
2023-02-28T05:01:37.450Z,3.98
2023-02-28T05:04:05.799Z,4.01
2023-02-28T05:06:33.382Z,4.00
2023-02-28T05:09:01.926Z,4.03
2023-02-28T05:11:37.162Z,3.99
2023-02-28T05:14:05.741Z,3.99
2023-02-28T05:16:35.706Z,3.99
2023-02-28T05:19:02.194Z,3.98
2023-02-28T05:21:34.162Z,3.97
2023-02-28T05:24:03.210Z,3.97
2023-02-28T05:26:30.556Z,3.96
2023-02-28T05:28:59.896Z,3.96
2023-02-28T05:31:29.906Z,3.95
2023-02-28T05:33:58.664Z,3.94
2023-02-28T05:36:25.382Z,3.93
2023-02-28T05:38:52.625Z,3.92
2023-02-28T05:41:20.866Z,3.89
2023-02-28T05:43:47.810Z,3.89
2023-02-28T05:46:16.263Z,3.90
2023-02-28T05:48:43.996Z,3.88
2023-02-28T05:51:11.737Z,3.86
2023-02-28T05:53:41.956Z,3.83
2023-02-28T05:56:08.281Z,3.82
2023-02-28T05:58:35.570Z,3.81
2023-02-28T06:01:24.712Z,3.79
2023-02-28T06:03:51.755Z,3.79
2023-02-28T06:06:18.217Z,3.78
2023-02-28T06:08:45.610Z,3.76
2023-02-28T06:11:12.118Z,3.75
2023-02-28T06:13:38.492Z,3.75
2023-02-28T06:16:05.302Z,3.73
2023-02-28T06:18:32.011Z,3.73
2023-02-28T06:20:58.525Z,3.72
2023-02-28T06:23:24.883Z,3.71
2023-02-28T06:25:51.577Z,3.71
2023-02-28T06:28:18.170Z,3.72
2023-02-28T06:30:46.428Z,3.72
2023-02-28T06:33:13.086Z,3.73
2023-02-28T06:35:39.416Z,3.74
2023-02-28T06:38:05.777Z,3.74
2023-02-28T06:40:35.116Z,3.74
2023-02-28T06:43:01.725Z,3.74
2023-02-28T06:45:28.321Z,3.72
2023-02-28T06:47:55.015Z,3.72
2023-02-28T06:50:21.474Z,3.72
2023-02-28T06:52:48.313Z,3.71
2023-02-28T06:55:15.014Z,3.71
2023-02-28T06:57:41.415Z,3.71
2023-02-28T07:00:10.550Z,3.71
2023-02-28T07:02:38.660Z,3.72
2023-02-28T07:05:06.820Z,3.74
2023-02-28T07:07:33.401Z,3.76
2023-02-28T07:09:59.959Z,3.78
2023-02-28T07:12:26.337Z,3.78
2023-02-28T07:14:52.821Z,3.79
2023-02-28T07:17:19.198Z,3.84
2023-02-28T07:19:45.600Z,3.86
2023-02-28T07:22:12.659Z,3.90
2023-02-28T07:24:40.110Z,3.93
2023-02-28T07:27:07.345Z,4.00
2023-02-28T07:29:33.709Z,4.06
2023-02-28T07:32:00.086Z,4.13
2023-02-28T07:34:27.119Z,4.20
2023-02-28T07:36:54.757Z,4.28
2023-02-28T07:39:22.640Z,4.36
2023-02-28T07:41:49.040Z,4.43
2023-02-28T07:44:15.684Z,4.49
2023-02-28T07:46:42.036Z,4.54
2023-02-28T07:49:08.511Z,4.60
2023-02-28T07:51:35.023Z,4.69
2023-02-28T07:54:01.497Z,4.74
2023-02-28T07:56:28.402Z,4.83
2023-02-28T07:58:55.116Z,4.89
2023-02-28T08:01:21.830Z,4.98
2023-02-28T08:03:48.615Z,5.06
2023-02-28T08:06:21.126Z,5.14
2023-02-28T08:08:48.009Z,5.23
2023-02-28T08:11:15.358Z,5.32
2023-02-28T08:13:43.537Z,5.39
2023-02-28T08:16:10.649Z,5.48
2023-02-28T08:18:37.281Z,5.55
2023-02-28T08:21:08.400Z,5.59
2023-02-28T08:23:34.768Z,5.68
2023-02-28T08:26:01.130Z,5.75
2023-02-28T08:28:27.752Z,5.83
2023-02-28T08:30:54.838Z,5.89
2023-02-28T08:33:21.726Z,5.95
2023-02-28T08:35:48.317Z,6.01
2023-02-28T08:38:14.626Z,6.08
2023-02-28T08:40:41.564Z,6.14
2023-02-28T08:43:07.938Z,6.21
2023-02-28T08:45:34.434Z,6.29
2023-02-28T08:48:00.796Z,6.36
2023-02-28T08:50:27.729Z,6.44
2023-02-28T08:52:54.218Z,6.51
2023-02-28T08:55:21.983Z,6.58
2023-02-28T08:57:48.402Z,6.67
2023-02-28T09:00:15.396Z,6.75
2023-02-28T09:02:43.617Z,6.83
2023-02-28T09:05:11.292Z,6.88
2023-02-28T09:07:37.672Z,6.95
2023-02-28T09:10:04.636Z,7.03
2023-02-28T09:12:35.432Z,7.10
2023-02-28T09:15:02.439Z,7.18
2023-02-28T09:17:30.621Z,7.25
2023-02-28T09:19:58.051Z,7.33
2023-02-28T09:22:24.838Z,7.40
2023-02-28T09:24:51.252Z,7.47
2023-02-28T09:27:18.124Z,7.53
2023-02-28T09:29:44.551Z,7.61
2023-02-28T09:32:11.072Z,7.68
2023-02-28T09:34:38.307Z,7.75
2023-02-28T09:37:04.794Z,7.83
2023-02-28T09:39:31.906Z,7.89
2023-02-28T09:41:58.739Z,7.97
2023-02-28T09:44:37.482Z,8.01
2023-02-28T09:47:28.628Z,8.09
2023-02-28T09:49:59.645Z,8.18
2023-02-28T09:52:31.379Z,8.24
2023-02-28T09:55:19.087Z,8.29
2023-02-28T09:57:46.807Z,8.40
2023-02-28T10:00:26.016Z,8.48
2023-02-28T10:03:26.436Z,8.60
2023-02-28T10:06:05.519Z,8.77
2023-02-28T10:08:48.004Z,8.90
2023-02-28T10:11:18.041Z,9.04
2023-02-28T10:14:04.777Z,9.14
2023-02-28T10:16:47.293Z,9.25
2023-02-28T10:19:27.258Z,9.32
2023-02-28T10:22:03.311Z,9.38
2023-02-28T10:24:54.706Z,9.40
2023-02-28T10:27:23.610Z,9.45
2023-02-28T10:30:01.654Z,9.45
2023-02-28T10:32:31.917Z,9.50
2023-02-28T10:35:00.770Z,9.53
2023-02-28T10:37:29.556Z,9.56
2023-02-28T10:39:56.674Z,9.59
2023-02-28T10:42:28.925Z,9.60
2023-02-28T10:45:16.369Z,9.62
2023-02-28T10:47:56.896Z,9.68
2023-02-28T10:50:32.307Z,9.71
2023-02-28T10:53:15.727Z,9.67
2023-02-28T10:55:42.532Z,9.73
2023-02-28T10:58:29.834Z,9.73
2023-02-28T11:00:56.789Z,9.77
2023-02-28T11:03:31.985Z,9.81
2023-02-28T11:05:59.328Z,9.83
2023-02-28T11:08:26.242Z,9.87
2023-02-28T11:10:58.811Z,9.89
2023-02-28T11:13:34.724Z,9.91
2023-02-28T11:16:06.371Z,9.95
2023-02-28T11:18:54.751Z,10.00
2023-02-28T11:21:27.093Z,10.03
2023-02-28T11:24:02.248Z,10.05
2023-02-28T11:26:47.310Z,10.02
2023-02-28T11:29:18.407Z,10.06
2023-02-28T11:31:45.010Z,10.07
2023-02-28T11:34:26.370Z,10.06
2023-02-28T11:36:55.539Z,10.13
2023-02-28T11:39:22.146Z,10.16
2023-02-28T11:41:58.693Z,10.22
2023-02-28T11:44:47.324Z,10.33
2023-02-28T11:47:22.368Z,10.47
2023-02-28T11:49:58.326Z,10.61
2023-02-28T11:52:54.898Z,10.71
2023-02-28T11:55:38.923Z,10.78
2023-02-28T11:58:25.096Z,10.88
2023-02-28T12:01:28.889Z,10.91
2023-02-28T12:04:26.987Z,10.95
2023-02-28T12:07:01.127Z,10.96
2023-02-28T12:09:45.010Z,10.92
2023-02-28T12:12:35.612Z,10.89
2023-02-28T12:15:23.329Z,10.84
2023-02-28T12:18:23.144Z,10.81
2023-02-28T12:21:02.998Z,10.78
2023-02-28T12:24:06.911Z,10.74
2023-02-28T12:26:40.907Z,10.74
2023-02-28T12:29:18.081Z,10.73
2023-02-28T12:31:54.159Z,10.74
2023-02-28T12:34:26.282Z,10.77
2023-02-28T12:36:57.204Z,10.77
2023-02-28T12:39:49.476Z,10.74
2023-02-28T12:42:30.375Z,10.69
2023-02-28T12:45:03.546Z,10.65
2023-02-28T12:47:31.243Z,10.64
2023-02-28T12:50:12.175Z,10.63
2023-02-28T12:53:01.665Z,10.55
2023-02-28T12:55:51.315Z,10.57
2023-02-28T12:58:38.834Z,10.59
2023-02-28T13:01:34.724Z,10.61
2023-02-28T13:04:01.314Z,10.61
2023-02-28T13:06:46.552Z,10.63
2023-02-28T13:09:16.537Z,10.64
2023-02-28T13:11:54.205Z,10.65
2023-02-28T13:14:25.109Z,10.68
2023-02-28T13:16:59.192Z,10.68
2023-02-28T13:19:28.431Z,10.72
2023-02-28T13:21:56.162Z,10.74
2023-02-28T13:24:41.032Z,10.76
2023-02-28T13:27:09.471Z,10.81
2023-02-28T13:29:42.968Z,10.80
2023-02-28T13:32:09.825Z,10.82
2023-02-28T13:34:38.940Z,10.81
2023-02-28T13:37:24.014Z,10.79
2023-02-28T13:39:54.222Z,10.82
2023-02-28T13:42:27.414Z,10.81
2023-02-28T13:45:02.836Z,10.80
2023-02-28T13:47:33.043Z,10.83
2023-02-28T13:50:27.391Z,10.80
2023-02-28T13:53:16.716Z,10.79
2023-02-28T13:56:11.306Z,10.76
2023-02-28T13:59:03.157Z,10.76
2023-02-28T14:02:01.470Z,10.74
2023-02-28T14:04:47.368Z,10.71
2023-02-28T14:07:24.904Z,10.72
2023-02-28T14:10:21.428Z,10.74
2023-02-28T14:13:12.026Z,10.75
2023-02-28T14:15:44.632Z,10.82
2023-02-28T14:18:18.937Z,10.86
2023-02-28T14:20:48.695Z,10.89
2023-02-28T14:23:31.570Z,10.92
2023-02-28T14:26:22.815Z,10.94
2023-02-28T14:29:16.119Z,10.98
2023-02-28T14:31:49.659Z,11.03
2023-02-28T14:34:43.928Z,11.03
2023-02-28T14:37:20.358Z,11.10
2023-02-28T14:39:47.767Z,11.13
2023-02-28T14:42:35.629Z,11.14
2023-02-28T14:45:03.972Z,11.23
2023-02-28T14:47:36.482Z,11.23
2023-02-28T14:50:05.196Z,11.24
2023-02-28T14:52:34.299Z,11.22
2023-02-28T14:55:05.043Z,11.23
2023-02-28T14:57:40.210Z,11.18
2023-02-28T15:00:22.557Z,11.19
2023-02-28T15:02:49.097Z,11.22
2023-02-28T15:05:18.702Z,11.23
2023-02-28T15:07:47.382Z,11.22
2023-02-28T15:10:26.408Z,11.14
2023-02-28T15:13:02.423Z,11.11
2023-02-28T15:16:05.072Z,11.06
2023-02-28T15:18:34.100Z,11.06
2023-02-28T15:21:07.425Z,11.04
2023-02-28T15:23:36.991Z,11.05
2023-02-28T15:26:03.918Z,11.05
2023-02-28T15:28:30.944Z,11.04
2023-02-28T15:31:01.730Z,11.02
2023-02-28T15:33:33.855Z,11.02
2023-02-28T15:36:18.524Z,11.00
2023-02-28T15:38:44.986Z,11.01
2023-02-28T15:41:38.991Z,10.98
2023-02-28T15:44:22.509Z,10.98
2023-02-28T15:47:00.141Z,10.97
2023-02-28T15:49:27.163Z,10.98
2023-02-28T15:51:56.579Z,10.96
2023-02-28T15:54:31.452Z,10.93
2023-02-28T15:57:02.704Z,10.92
2023-02-28T15:59:31.540Z,10.90
2023-02-28T16:02:12.926Z,10.87
2023-02-28T16:04:57.530Z,10.84
2023-02-28T16:07:25.110Z,10.88
2023-02-28T16:09:55.440Z,10.85
2023-02-28T16:12:26.877Z,10.83
2023-02-28T16:14:55.332Z,10.81
2023-02-28T16:17:23.721Z,10.83
2023-02-28T16:19:50.221Z,10.82
2023-02-28T16:22:16.886Z,10.79
2023-02-28T16:24:43.541Z,10.77
2023-02-28T16:27:31.731Z,10.70
2023-02-28T16:29:58.282Z,10.70
2023-02-28T16:32:24.753Z,10.65
2023-02-28T16:34:51.701Z,10.63
2023-02-28T16:37:19.419Z,10.59
2023-02-28T16:39:46.780Z,10.54
2023-02-28T16:42:28.157Z,10.50
2023-02-28T16:44:56.231Z,10.49
2023-02-28T16:47:23.258Z,10.45
2023-02-28T16:49:49.814Z,10.41
2023-02-28T16:52:16.411Z,10.37
2023-02-28T16:54:43.140Z,10.33
2023-02-28T16:57:21.931Z,10.26
2023-02-28T16:59:51.627Z,10.24
2023-02-28T17:02:20.314Z,10.18
2023-02-28T17:04:47.541Z,10.15
2023-02-28T17:07:16.970Z,10.09
2023-02-28T17:09:45.740Z,10.03
2023-02-28T17:12:13.073Z,9.99
2023-02-28T17:14:39.509Z,9.94
2023-02-28T17:17:07.065Z,9.88
2023-02-28T17:19:35.208Z,9.85
2023-02-28T17:22:01.641Z,9.79
2023-02-28T17:24:31.229Z,9.75
2023-02-28T17:26:58.036Z,9.69
2023-02-28T17:29:25.315Z,9.65
2023-02-28T17:31:53.135Z,9.61
2023-02-28T17:34:20.499Z,9.56
2023-02-28T17:36:48.311Z,9.51
2023-02-28T17:39:16.523Z,9.46
2023-02-28T17:41:43.062Z,9.42
2023-02-28T17:44:10.017Z,9.39
2023-02-28T17:46:37.250Z,9.35
2023-02-28T17:49:04.266Z,9.30
2023-02-28T17:51:30.975Z,9.25
2023-02-28T17:53:57.363Z,9.22
2023-02-28T17:56:26.274Z,9.18
2023-02-28T17:58:54.856Z,9.14
2023-02-28T18:01:22.847Z,9.12
2023-02-28T18:03:49.445Z,9.08
2023-02-28T18:06:33.958Z,9.04
2023-02-28T18:09:00.563Z,9.02
2023-02-28T18:11:41.896Z,8.98
2023-02-28T18:14:09.038Z,8.96
2023-02-28T18:16:35.459Z,8.91
2023-02-28T18:19:04.525Z,8.88
2023-02-28T18:21:31.683Z,8.85
2023-02-28T18:23:58.452Z,8.83
2023-02-28T18:26:24.830Z,8.80
2023-02-28T18:28:51.212Z,8.74
2023-02-28T18:31:20.353Z,8.71
2023-02-28T18:33:51.427Z,8.68
2023-02-28T18:36:19.081Z,8.65
2023-02-28T18:38:45.964Z,8.63
2023-02-28T18:41:12.976Z,8.59
2023-02-28T18:43:39.513Z,8.57
2023-02-28T18:46:09.774Z,8.54
2023-02-28T18:48:36.741Z,8.53
2023-02-28T18:51:11.058Z,8.48
2023-02-28T18:53:42.658Z,8.47
2023-02-28T18:56:13.198Z,8.45
2023-02-28T18:58:40.266Z,8.44
2023-02-28T19:01:21.398Z,8.39
2023-02-28T19:03:49.874Z,8.38
2023-02-28T19:06:18.237Z,8.38
2023-02-28T19:08:44.673Z,8.40
2023-02-28T19:11:13.278Z,8.38
2023-02-28T19:13:39.953Z,8.33
2023-02-28T19:16:08.499Z,8.28
2023-02-28T19:18:35.685Z,8.25
2023-02-28T19:21:02.281Z,8.21
2023-02-28T19:23:29.218Z,8.18
2023-02-28T19:25:57.512Z,8.16
2023-02-28T19:28:24.246Z,8.14
2023-02-28T19:30:53.091Z,8.11
2023-02-28T19:33:20.758Z,8.10
2023-02-28T19:35:49.138Z,8.07
2023-02-28T19:38:15.906Z,8.06
2023-02-28T19:40:42.241Z,8.07
2023-02-28T19:43:09.513Z,8.02
2023-02-28T19:45:37.908Z,7.98
2023-02-28T19:48:04.389Z,7.97
2023-02-28T19:50:31.699Z,7.96
2023-02-28T19:52:59.995Z,7.92
2023-02-28T19:55:27.270Z,7.88
2023-02-28T19:57:53.661Z,7.85
2023-02-28T20:00:20.141Z,7.82
2023-02-28T20:02:46.577Z,7.79
2023-02-28T20:05:13.172Z,7.76
2023-02-28T20:07:39.539Z,7.73
2023-02-28T20:10:06.399Z,7.72
2023-02-28T20:12:32.938Z,7.70
2023-02-28T20:14:59.822Z,7.68
2023-02-28T20:17:26.253Z,7.68
2023-02-28T20:19:54.251Z,7.66
2023-02-28T20:22:20.898Z,7.64
2023-02-28T20:24:48.433Z,7.63
2023-02-28T20:27:15.605Z,7.61
2023-02-28T20:29:41.993Z,7.61
2023-02-28T20:32:08.523Z,7.59
2023-02-28T20:34:34.934Z,7.57
2023-02-28T20:37:01.511Z,7.54
2023-02-28T20:39:29.060Z,7.53
2023-02-28T20:41:55.462Z,7.51
2023-02-28T20:44:21.936Z,7.47
2023-02-28T20:46:48.389Z,7.44
2023-02-28T20:49:15.722Z,7.42
2023-02-28T20:51:42.264Z,7.40
2023-02-28T20:54:11.137Z,7.37
2023-02-28T20:56:38.302Z,7.33
2023-02-28T20:59:05.374Z,7.29
2023-02-28T21:01:32.662Z,7.25
2023-02-28T21:04:03.037Z,7.19
2023-02-28T21:06:33.045Z,7.14
2023-02-28T21:09:00.993Z,7.08
2023-02-28T21:11:30.124Z,7.03
2023-02-28T21:13:59.568Z,6.96
2023-02-28T21:16:27.056Z,6.87
2023-02-28T21:18:55.184Z,6.82
2023-02-28T21:21:24.438Z,6.74
2023-02-28T21:23:52.636Z,6.68
2023-02-28T21:26:21.410Z,6.61
2023-02-28T21:29:02.261Z,6.56
2023-02-28T21:31:31.994Z,6.51
2023-02-28T21:34:00.301Z,6.48
2023-02-28T21:36:32.815Z,6.42
2023-02-28T21:39:08.102Z,6.40
2023-02-28T21:41:36.181Z,6.34
2023-02-28T21:44:02.566Z,6.33
2023-02-28T21:46:30.495Z,6.29
2023-02-28T21:48:58.459Z,6.27
2023-02-28T21:51:33.762Z,6.24
2023-02-28T21:54:00.618Z,6.23
2023-02-28T21:56:30.386Z,6.20
2023-02-28T21:59:00.298Z,6.17
2023-02-28T22:01:32.548Z,6.11
2023-02-28T22:03:59.712Z,6.09
2023-02-28T22:06:29.045Z,6.05
2023-02-28T22:08:57.490Z,6.02
2023-02-28T22:11:25.921Z,5.99
2023-02-28T22:13:53.483Z,5.99
2023-02-28T22:16:21.001Z,5.98
2023-02-28T22:18:47.757Z,5.95
2023-02-28T22:21:15.980Z,5.91
2023-02-28T22:23:42.794Z,5.89
2023-02-28T22:26:12.813Z,5.86
2023-02-28T22:28:39.541Z,5.84
2023-02-28T22:31:17.692Z,5.80
2023-02-28T22:33:45.354Z,5.80
2023-02-28T22:36:15.876Z,5.77
2023-02-28T22:38:43.568Z,5.74
2023-02-28T22:41:11.785Z,5.72
2023-02-28T22:43:41.719Z,5.68
2023-02-28T22:46:10.076Z,5.65
2023-02-28T22:48:36.476Z,5.61
2023-02-28T22:51:05.240Z,5.60
2023-02-28T22:53:33.532Z,5.55
2023-02-28T22:56:00.588Z,5.53
2023-02-28T22:58:27.801Z,5.52
2023-02-28T23:00:58.047Z,5.46
2023-02-28T23:03:25.897Z,5.43
2023-02-28T23:05:53.138Z,5.40
2023-02-28T23:08:23.497Z,5.38
2023-02-28T23:10:52.280Z,5.36
2023-02-28T23:13:19.992Z,5.34
2023-02-28T23:15:48.277Z,5.34
2023-02-28T23:18:16.826Z,5.34
2023-02-28T23:20:44.013Z,5.31
2023-02-28T23:23:10.755Z,5.31
2023-02-28T23:25:41.669Z,5.29
2023-02-28T23:28:10.171Z,5.30
2023-02-28T23:30:42.737Z,5.27
2023-02-28T23:33:09.080Z,5.28
2023-02-28T23:35:35.457Z,5.27
2023-02-28T23:38:01.925Z,5.25
2023-02-28T23:40:28.274Z,5.25
2023-02-28T23:42:54.644Z,5.24
2023-02-28T23:45:23.699Z,5.23
2023-02-28T23:47:51.135Z,5.22
2023-02-28T23:50:17.596Z,5.20
2023-02-28T23:52:43.958Z,5.20
2023-02-28T23:55:10.898Z,5.21
2023-02-28T23:57:39.066Z,5.21
